createdAt,value
2018-09-04T00:00:45.316Z,36.63
2018-09-04T00:03:13.515Z,36.37
2018-09-04T00:05:41.684Z,37.13
2018-09-04T00:08:09.866Z,41.27
2018-09-04T00:10:38.041Z,42.87
2018-09-04T00:13:06.241Z,43.27
2018-09-04T00:15:34.407Z,40.50
2018-09-04T00:18:02.604Z,41.83
2018-09-04T00:20:30.775Z,42.17
2018-09-04T00:22:58.944Z,44.63
2018-09-04T00:25:27.135Z,43.13
2018-09-04T00:27:55.325Z,45.00
2018-09-04T00:30:23.529Z,42.57
2018-09-04T00:32:51.705Z,39.90
2018-09-04T00:35:19.887Z,36.13
2018-09-04T00:37:48.055Z,38.50
2018-09-04T00:40:16.239Z,40.20
2018-09-04T00:42:44.415Z,38.63
2018-09-04T00:45:12.612Z,37.27
2018-09-04T00:47:40.778Z,39.30
2018-09-04T00:50:08.979Z,38.27
2018-09-04T00:52:37.156Z,37.53
2018-09-04T00:55:05.346Z,40.10
2018-09-04T00:57:33.555Z,41.27
2018-09-04T01:00:01.736Z,40.20
2018-09-04T01:02:29.934Z,40.77
2018-09-04T01:04:58.102Z,41.17
2018-09-04T01:07:26.297Z,41.63
2018-09-04T01:09:54.570Z,47.60
2018-09-04T01:12:22.748Z,42.70
2018-09-04T01:14:54.975Z,41.30
2018-09-04T01:17:23.175Z,49.07
2018-09-04T01:19:51.747Z,44.10
2018-09-04T01:22:19.935Z,45.53
2018-09-04T01:24:48.104Z,41.63
2018-09-04T01:27:16.289Z,42.63
2018-09-04T01:29:44.457Z,40.60
2018-09-04T01:32:12.666Z,47.47
2018-09-04T01:34:40.855Z,44.30
2018-09-04T01:37:09.063Z,42.80
2018-09-04T01:39:37.235Z,40.70
2018-09-04T01:42:05.520Z,45.33
2018-09-04T01:44:33.702Z,41.33
2018-09-04T01:47:01.887Z,45.30
2018-09-04T01:49:30.116Z,43.77
2018-09-04T01:51:58.287Z,37.57
2018-09-04T01:54:26.470Z,40.40
2018-09-04T01:56:54.650Z,37.97
2018-09-04T01:59:22.861Z,40.57
2018-09-04T02:01:51.055Z,39.40
2018-09-04T02:04:19.246Z,40.57
2018-09-04T02:06:47.435Z,43.33
2018-09-04T02:09:15.631Z,43.30
2018-09-04T02:11:43.819Z,42.93
2018-09-04T02:14:12.011Z,46.47
2018-09-04T02:16:40.191Z,46.97
2018-09-04T02:19:08.406Z,50.60
2018-09-04T02:21:36.583Z,46.27
2018-09-04T02:24:04.791Z,45.63
2018-09-04T02:26:32.970Z,48.80
2018-09-04T02:29:01.134Z,45.33
2018-09-04T02:31:29.328Z,42.53
2018-09-04T02:33:57.504Z,44.53
2018-09-04T02:36:25.701Z,44.10
2018-09-04T02:38:53.884Z,40.67
2018-09-04T02:41:22.077Z,39.97
2018-09-04T02:43:50.247Z,37.50
2018-09-04T02:46:18.417Z,37.47
2018-09-04T02:48:46.628Z,41.10
2018-09-04T02:51:14.823Z,37.10
2018-09-04T02:53:43.011Z,36.53
2018-09-04T02:56:11.253Z,35.70
2018-09-04T02:58:39.462Z,36.57
2018-09-04T03:01:07.634Z,34.83
2018-09-04T03:03:35.814Z,36.40
2018-09-04T03:06:04.015Z,35.90
2018-09-04T03:08:32.414Z,35.90
2018-09-04T03:11:00.638Z,38.87
2018-09-04T03:13:28.886Z,35.97
2018-09-04T03:15:56.987Z,35.13
2018-09-04T03:18:25.167Z,39.30
2018-09-04T03:20:53.359Z,39.87
2018-09-04T03:23:21.552Z,47.47
2018-09-04T03:25:49.742Z,44.93
2018-09-04T03:28:17.913Z,43.07
2018-09-04T03:30:46.113Z,40.30
2018-09-04T03:33:14.307Z,45.07
2018-09-04T03:35:42.488Z,40.77
2018-09-04T03:38:10.652Z,42.47
2018-09-04T03:40:38.881Z,44.60
2018-09-04T03:43:07.469Z,47.53
2018-09-04T03:45:35.668Z,42.80
2018-09-04T03:48:03.867Z,54.03
2018-09-04T03:50:32.033Z,55.20
2018-09-04T03:53:00.203Z,50.40
2018-09-04T03:55:28.375Z,54.30
2018-09-04T03:57:56.541Z,51.77
2018-09-04T04:00:24.740Z,50.10
2018-09-04T04:02:52.908Z,47.97
2018-09-04T04:05:21.088Z,45.37
2018-09-04T04:07:49.341Z,48.10
2018-09-04T04:10:17.503Z,49.10
2018-09-04T04:12:45.711Z,46.77
2018-09-04T04:15:13.899Z,49.33
2018-09-04T04:17:42.092Z,49.03
2018-09-04T04:20:10.325Z,46.83
2018-09-04T04:22:38.503Z,41.70
2018-09-04T04:25:06.710Z,43.17
2018-09-04T04:27:34.900Z,43.83
2018-09-04T04:30:03.107Z,45.53
2018-09-04T04:32:31.310Z,40.10
2018-09-04T04:34:59.627Z,47.57
2018-09-04T04:37:27.832Z,45.50
2018-09-04T04:39:56.048Z,46.57
2018-09-04T04:42:24.202Z,46.67
2018-09-04T04:44:52.379Z,46.67
2018-09-04T04:47:24.712Z,46.77
2018-09-04T04:49:52.980Z,46.00
2018-09-04T04:52:21.151Z,41.83
2018-09-04T04:54:49.313Z,53.97
2018-09-04T04:57:17.498Z,49.40
2018-09-04T04:59:45.718Z,52.33
2018-09-04T05:02:13.932Z,46.43
2018-09-04T05:04:42.109Z,54.77
2018-09-04T05:07:10.306Z,59.10
2018-09-04T05:09:38.481Z,56.80
2018-09-04T05:12:06.712Z,57.17
2018-09-04T05:14:34.920Z,58.00
2018-09-04T05:17:03.170Z,50.83
2018-09-04T05:19:31.344Z,54.87
2018-09-04T05:21:59.535Z,52.10
2018-09-04T05:24:27.714Z,46.20
2018-09-04T05:26:55.907Z,52.97
2018-09-04T05:29:24.105Z,51.57
2018-09-04T05:31:57.423Z,48.37
2018-09-04T05:34:25.843Z,52.63
2018-09-04T05:36:54.092Z,49.30
2018-09-04T05:39:22.196Z,53.60
2018-09-04T05:41:50.362Z,48.77
2018-09-04T05:44:18.556Z,53.20
2018-09-04T05:46:49.573Z,51.73
2018-09-04T05:49:20.118Z,47.70
2018-09-04T05:51:48.316Z,54.87
2018-09-04T05:54:16.572Z,57.13
2018-09-04T05:56:44.800Z,54.27
2018-09-04T05:59:12.978Z,42.77
2018-09-04T06:01:41.176Z,54.40
2018-09-04T06:04:09.355Z,47.03
2018-09-04T06:06:37.554Z,50.73
2018-09-04T06:09:06.587Z,50.90
2018-09-04T06:11:34.763Z,56.63
2018-09-04T06:14:02.964Z,57.80
2018-09-04T06:16:31.144Z,57.97
2018-09-04T06:18:59.327Z,56.07
2018-09-04T06:21:27.504Z,50.43
2018-09-04T06:23:55.670Z,52.47
2018-09-04T06:26:23.843Z,51.23
2018-09-04T06:28:52.027Z,55.50
2018-09-04T06:31:20.214Z,61.30
2018-09-04T06:33:48.420Z,53.90
2018-09-04T06:36:16.591Z,55.57
2018-09-04T06:38:44.779Z,56.40
2018-09-04T06:41:12.943Z,55.90
2018-09-04T06:43:41.139Z,56.13
2018-09-04T06:46:09.318Z,60.00
2018-09-04T06:48:37.629Z,57.40
2018-09-04T06:51:05.808Z,61.03
2018-09-04T06:53:33.979Z,51.57
2018-09-04T06:56:02.207Z,52.60
2018-09-04T06:58:30.366Z,57.10
2018-09-04T07:00:58.555Z,52.20
2018-09-04T07:03:26.740Z,57.00
2018-09-04T07:05:54.940Z,55.60
2018-09-04T07:08:23.077Z,51.37
2018-09-04T07:10:51.264Z,54.40
2018-09-04T07:13:19.438Z,62.73
2018-09-04T07:15:47.629Z,54.37
2018-09-04T07:18:15.811Z,52.47
2018-09-04T07:20:44.036Z,50.00
2018-09-04T07:23:12.223Z,49.17
2018-09-04T07:25:40.408Z,49.40
2018-09-04T07:28:08.580Z,44.93
2018-09-04T07:30:36.758Z,50.87
2018-09-04T07:33:04.960Z,51.57
2018-09-04T07:35:33.132Z,44.33
2018-09-04T07:38:01.316Z,47.77
2018-09-04T07:40:29.487Z,49.73
2018-09-04T07:42:57.668Z,49.97
2018-09-04T07:45:25.848Z,47.07
2018-09-04T07:47:54.053Z,50.60
2018-09-04T07:50:22.239Z,50.77
2018-09-04T07:52:50.443Z,48.83
2018-09-04T07:55:18.626Z,50.77
2018-09-04T07:57:46.807Z,48.20
2018-09-04T08:00:14.981Z,52.23
2018-09-04T08:02:43.159Z,50.70
2018-09-04T08:05:11.339Z,50.73
2018-09-04T08:07:39.543Z,48.50
2018-09-04T08:10:07.786Z,47.00
2018-09-04T08:12:35.919Z,50.67
2018-09-04T08:15:04.139Z,49.03
2018-09-04T08:17:32.324Z,46.10
2018-09-04T08:20:00.594Z,46.97
2018-09-04T08:22:28.760Z,48.47
2018-09-04T08:24:56.935Z,50.47
2018-09-04T08:27:25.112Z,47.83
2018-09-04T08:29:53.292Z,44.60
2018-09-04T08:32:21.463Z,50.90
2018-09-04T08:34:49.670Z,45.07
2018-09-04T08:37:17.862Z,46.90
2018-09-04T08:39:46.181Z,50.37
2018-09-04T08:42:14.377Z,48.83
2018-09-04T08:44:42.543Z,46.67
2018-09-04T08:47:10.742Z,40.23
2018-09-04T08:49:38.903Z,39.70
2018-09-04T08:52:07.158Z,43.10
2018-09-04T08:54:35.358Z,39.73
2018-09-04T08:57:03.560Z,39.73
2018-09-04T08:59:31.751Z,34.97
2018-09-04T09:01:59.937Z,38.57
2018-09-04T09:04:28.128Z,39.70
2018-09-04T09:06:56.341Z,39.93
2018-09-04T09:09:24.519Z,41.43
2018-09-04T09:11:52.711Z,40.47
2018-09-04T09:14:20.899Z,41.70
2018-09-04T09:16:49.105Z,38.40
2018-09-04T09:19:17.274Z,40.83
2018-09-04T09:21:45.467Z,37.93
2018-09-04T09:24:13.646Z,38.33
2018-09-04T09:26:42.112Z,37.83
2018-09-04T09:29:10.304Z,33.57
2018-09-04T09:31:38.516Z,31.80
2018-09-04T09:34:06.714Z,31.87
2018-09-04T09:36:34.963Z,33.13
2018-09-04T09:39:03.367Z,33.63
2018-09-04T09:41:31.588Z,31.20
2018-09-04T09:43:59.760Z,27.70
2018-09-04T09:46:27.926Z,29.87
2018-09-04T09:48:56.144Z,29.07
2018-09-04T09:51:24.791Z,30.03
2018-09-04T09:53:52.989Z,29.00
2018-09-04T09:56:21.232Z,31.53
2018-09-04T09:58:49.338Z,28.30
2018-09-04T10:02:27.926Z,29.37
2018-09-04T10:04:56.161Z,26.07
2018-09-04T10:07:24.409Z,27.53
2018-09-04T10:09:52.607Z,26.27
2018-09-04T10:12:20.756Z,27.20
2018-09-04T10:14:48.951Z,26.70
2018-09-04T10:17:17.144Z,24.20
2018-09-04T10:19:45.384Z,26.70
2018-09-04T10:22:13.510Z,23.07
2018-09-04T10:24:41.731Z,21.87
2018-09-04T10:27:09.908Z,25.60
2018-09-04T10:29:38.117Z,26.30
2018-09-04T10:32:06.300Z,24.33
2018-09-04T10:34:34.488Z,25.33
2018-09-04T10:37:02.674Z,25.17
2018-09-04T10:39:35.999Z,22.77
2018-09-04T10:42:04.191Z,24.30
2018-09-04T10:44:32.365Z,23.80
2018-09-04T10:47:00.956Z,21.57
2018-09-04T10:49:29.120Z,21.83
2018-09-04T10:51:57.323Z,23.67
2018-09-04T10:54:25.513Z,22.97
2018-09-04T10:56:53.715Z,23.47
2018-09-04T10:59:21.980Z,22.43
2018-09-04T11:01:50.156Z,20.20
2018-09-04T11:04:18.344Z,20.83
2018-09-04T11:06:46.535Z,20.67
2018-09-04T11:09:14.786Z,21.53
2018-09-04T11:11:42.908Z,21.30
2018-09-04T11:14:11.131Z,23.10
2018-09-04T11:16:39.304Z,22.50
2018-09-04T11:19:07.551Z,23.13
2018-09-04T11:21:35.755Z,23.43
2018-09-04T11:24:03.940Z,24.70
2018-09-04T11:26:32.118Z,22.73
2018-09-04T11:29:02.724Z,21.73
2018-09-04T11:31:30.895Z,22.37
2018-09-04T11:33:59.069Z,23.07
2018-09-04T11:36:27.244Z,22.40
2018-09-04T11:38:55.480Z,22.37
2018-09-04T11:41:23.683Z,24.63
2018-09-04T11:43:51.876Z,22.50
2018-09-04T11:46:20.066Z,24.13
2018-09-04T11:48:48.247Z,21.87
2018-09-04T11:51:16.424Z,21.73
2018-09-04T11:53:44.608Z,23.63
2018-09-04T11:56:16.396Z,24.53
2018-09-04T11:58:44.588Z,24.00
2018-09-04T12:01:14.382Z,24.20
2018-09-04T12:03:42.566Z,23.97
2018-09-04T12:06:12.119Z,23.03
2018-09-04T12:08:40.300Z,23.70
2018-09-04T12:11:08.494Z,22.10
2018-09-04T12:13:36.672Z,23.67
2018-09-04T12:16:04.848Z,23.87
2018-09-04T12:18:33.018Z,25.33
2018-09-04T12:21:08.802Z,24.27
2018-09-04T12:23:37.063Z,25.87
2018-09-04T12:26:06.459Z,23.83
2018-09-04T12:28:34.631Z,23.77
2018-09-04T12:31:03.219Z,23.53
2018-09-04T12:33:31.534Z,25.83
2018-09-04T12:35:59.757Z,23.80
2018-09-04T12:38:30.576Z,23.03
2018-09-04T12:40:58.800Z,24.20
2018-09-04T12:43:27.158Z,22.13
2018-09-04T12:45:56.880Z,23.43
2018-09-04T12:48:27.210Z,22.30
2018-09-04T12:50:56.488Z,22.73
2018-09-04T12:53:25.282Z,21.90
2018-09-04T12:55:54.142Z,21.00
2018-09-04T12:58:22.740Z,20.67
2018-09-04T13:00:52.259Z,22.83
2018-09-04T13:03:21.859Z,21.43
2018-09-04T13:05:50.060Z,23.37
2018-09-04T13:08:19.260Z,22.60
2018-09-04T13:10:47.484Z,22.27
2018-09-04T13:13:15.897Z,21.77
2018-09-04T13:15:46.635Z,22.13
2018-09-04T13:18:14.822Z,22.37
2018-09-04T13:20:43.288Z,22.67
2018-09-04T13:23:11.506Z,21.87
2018-09-04T13:25:39.752Z,22.00
2018-09-04T13:28:08.093Z,21.13
2018-09-04T13:30:36.511Z,23.70
2018-09-04T13:33:04.710Z,21.03
2018-09-04T13:35:32.900Z,23.40
2018-09-04T13:38:01.089Z,23.20
2018-09-04T13:40:29.342Z,22.47
2018-09-04T13:42:57.570Z,22.60
2018-09-04T13:45:25.806Z,22.07
2018-09-04T13:47:54.170Z,20.97
2018-09-04T13:50:22.363Z,21.60
2018-09-04T13:52:50.565Z,21.50
2018-09-04T13:55:18.800Z,20.43
2018-09-04T13:57:47.021Z,20.83
2018-09-04T14:00:16.175Z,21.10
2018-09-04T14:02:44.525Z,21.00
2018-09-04T14:05:12.735Z,21.10
2018-09-04T14:07:40.979Z,23.43
2018-09-04T14:10:09.446Z,20.60
2018-09-04T14:12:37.664Z,22.03
2018-09-04T14:15:06.983Z,21.33
2018-09-04T14:17:35.183Z,22.17
2018-09-04T14:20:03.403Z,22.13
2018-09-04T14:22:31.632Z,22.77
2018-09-04T14:24:59.826Z,23.03
2018-09-04T14:27:27.996Z,21.90
2018-09-04T14:30:15.544Z,22.20
2018-09-04T14:32:24.493Z,22.90
2018-09-04T14:34:52.766Z,21.90
2018-09-04T14:37:21.976Z,21.07
2018-09-04T14:39:55.592Z,22.00
2018-09-04T14:42:18.352Z,20.17
2018-09-04T14:44:46.605Z,22.33
2018-09-04T14:47:14.769Z,23.47
2018-09-04T14:49:42.948Z,23.13
2018-09-04T14:52:11.125Z,24.40
2018-09-04T14:54:39.308Z,24.03
2018-09-04T14:57:07.492Z,24.83
2018-09-04T14:59:35.674Z,25.53
2018-09-04T15:02:03.844Z,26.17
2018-09-04T15:04:32.035Z,27.23
2018-09-04T15:07:00.224Z,26.27
2018-09-04T15:09:28.394Z,26.53
2018-09-04T15:11:56.744Z,26.90
2018-09-04T15:14:24.928Z,27.53
2018-09-04T15:16:54.572Z,26.50
2018-09-04T15:19:22.794Z,26.60
2018-09-04T15:21:50.987Z,28.17
2018-09-04T15:24:19.703Z,27.67
2018-09-04T15:26:47.894Z,28.67
2018-09-04T15:29:16.079Z,29.67
2018-09-04T15:31:44.415Z,31.47
2018-09-04T15:34:12.503Z,32.47
2018-09-04T15:36:40.876Z,31.50
2018-09-04T15:39:09.118Z,30.23
2018-09-04T15:41:37.599Z,29.30
2018-09-04T15:44:05.927Z,29.87
2018-09-04T15:46:34.264Z,28.10
2018-09-04T15:49:07.674Z,27.67
2018-09-04T15:51:35.876Z,27.50
2018-09-04T15:54:04.058Z,27.43
2018-09-04T15:56:32.319Z,25.67
2018-09-04T15:59:00.476Z,24.73
2018-09-04T16:01:28.646Z,26.50
2018-09-04T16:03:56.835Z,24.20
2018-09-04T16:06:25.283Z,23.73
2018-09-04T16:08:53.550Z,24.93
2018-09-04T16:11:21.991Z,25.67
2018-09-04T16:13:50.224Z,25.37
2018-09-04T16:16:18.555Z,25.87
2018-09-04T16:18:46.774Z,26.07
2018-09-04T16:21:14.980Z,25.87
2018-09-04T16:23:43.898Z,28.03
2018-09-04T16:26:12.071Z,30.07
2018-09-04T16:28:40.390Z,29.20
2018-09-04T16:31:08.745Z,31.33
2018-09-04T16:33:37.044Z,32.00
2018-09-04T16:36:05.706Z,32.80
2018-09-04T16:38:34.437Z,34.80
2018-09-04T16:41:03.003Z,33.43
2018-09-04T16:43:33.811Z,35.57
2018-09-04T16:46:03.052Z,38.77
2018-09-04T16:48:32.526Z,35.33
2018-09-04T16:51:03.009Z,35.40
2018-09-04T16:53:32.281Z,35.60
2018-09-04T16:56:01.478Z,36.30
2018-09-04T16:58:30.256Z,38.13
2018-09-04T17:00:58.779Z,36.77
2018-09-04T17:03:27.738Z,36.83
2018-09-04T17:05:56.531Z,35.90
2018-09-04T17:08:24.749Z,38.53
2018-09-04T17:10:53.320Z,38.60
2018-09-04T17:13:21.535Z,32.70
2018-09-04T17:15:49.759Z,34.13
2018-09-04T17:18:17.942Z,33.93
2018-09-04T17:20:46.195Z,36.20
2018-09-04T17:23:14.371Z,32.87
2018-09-04T17:25:42.551Z,36.13
2018-09-04T17:28:10.755Z,34.23
2018-09-04T17:30:38.951Z,32.93
2018-09-04T17:33:07.136Z,32.70
2018-09-04T17:35:35.336Z,34.80
2018-09-04T17:38:03.527Z,37.10
2018-09-04T17:40:31.719Z,36.00
2018-09-04T17:42:59.911Z,37.00
2018-09-04T17:45:28.098Z,36.27
2018-09-04T17:47:56.531Z,36.53
2018-09-04T17:50:25.388Z,35.67
2018-09-04T17:52:54.311Z,37.87
2018-09-04T17:55:22.916Z,35.13
2018-09-04T17:57:51.856Z,36.00
2018-09-04T18:00:20.067Z,38.50
2018-09-04T18:02:48.379Z,34.83
2018-09-04T18:05:16.849Z,37.53
2018-09-04T18:07:45.263Z,38.30
2018-09-04T18:10:14.037Z,38.40
2018-09-04T18:12:42.324Z,36.53
2018-09-04T18:15:10.520Z,33.93
2018-09-04T18:17:38.779Z,32.53
2018-09-04T18:20:07.350Z,32.57
2018-09-04T18:22:35.532Z,36.27
2018-09-04T18:25:04.067Z,38.73
2018-09-04T18:27:32.331Z,40.37
2018-09-04T18:30:01.849Z,38.43
2018-09-04T18:32:30.221Z,37.93
2018-09-04T18:34:58.458Z,37.33
2018-09-04T18:37:27.688Z,36.30
2018-09-04T18:39:57.110Z,33.17
2018-09-04T18:42:25.607Z,36.67
2018-09-04T18:44:53.799Z,37.27
2018-09-04T18:47:22.922Z,36.80
2018-09-04T18:49:52.128Z,34.50
2018-09-04T18:52:20.447Z,38.80
2018-09-04T18:54:48.758Z,36.23
2018-09-04T18:57:17.879Z,34.83
2018-09-04T18:59:46.409Z,34.63
2018-09-04T19:02:15.560Z,33.57
2018-09-04T19:04:43.969Z,32.13
2018-09-04T19:07:12.300Z,32.17
2018-09-04T19:09:40.765Z,33.07
2018-09-04T19:12:10.270Z,30.33
2018-09-04T19:14:38.635Z,29.00
2018-09-04T19:17:09.140Z,30.50
2018-09-04T19:19:37.597Z,30.67
2018-09-04T19:22:05.896Z,34.57
2018-09-04T19:24:34.096Z,34.77
2018-09-04T19:27:02.275Z,35.67
2018-09-04T19:29:30.460Z,35.40
2018-09-04T19:31:58.627Z,33.00
2018-09-04T19:34:26.832Z,31.40
2018-09-04T19:36:55.029Z,32.97
2018-09-04T19:39:23.193Z,32.30
2018-09-04T19:41:51.367Z,31.33
2018-09-04T19:44:19.544Z,29.80
2018-09-04T19:46:47.724Z,28.83
2018-09-04T19:49:15.923Z,30.47
2018-09-04T19:51:44.119Z,27.73
2018-09-04T19:54:12.279Z,28.37
2018-09-04T19:56:40.463Z,27.83
2018-09-04T19:59:08.664Z,28.50
2018-09-04T20:01:36.849Z,28.70
2018-09-04T20:04:05.027Z,29.17
2018-09-04T20:06:33.231Z,28.17
2018-09-04T20:09:01.420Z,27.03
2018-09-04T20:11:29.646Z,25.67
2018-09-04T20:13:57.823Z,25.30
2018-09-04T20:16:26.016Z,25.93
2018-09-04T20:18:54.187Z,25.13
2018-09-04T20:21:22.375Z,26.43
2018-09-04T20:23:50.557Z,24.93
2018-09-04T20:26:18.744Z,26.03
2018-09-04T20:28:46.910Z,25.90
2018-09-04T20:31:15.096Z,23.63
2018-09-04T20:33:43.292Z,25.53
2018-09-04T20:36:11.462Z,24.77
2018-09-04T20:38:39.678Z,24.60
2018-09-04T20:41:07.851Z,24.80
2018-09-04T20:43:36.035Z,23.83
2018-09-04T20:46:04.222Z,24.40
2018-09-04T20:48:32.417Z,24.20
2018-09-04T20:51:00.634Z,25.03
2018-09-04T20:53:28.814Z,24.87
2018-09-04T20:55:57.007Z,25.43
2018-09-04T20:58:36.371Z,27.77
2018-09-04T21:01:15.737Z,25.60
2018-09-04T21:03:55.216Z,24.47
2018-09-04T21:06:34.791Z,24.73
2018-09-04T21:09:12.737Z,25.27
2018-09-04T21:11:41.222Z,24.73
2018-09-04T21:14:09.415Z,25.87
2018-09-04T21:16:37.597Z,24.27
2018-09-04T21:19:05.787Z,26.50
2018-09-04T21:21:33.973Z,24.73
2018-09-04T21:24:02.151Z,22.90
2018-09-04T21:26:30.325Z,27.23
2018-09-04T21:28:58.536Z,24.93
2018-09-04T21:31:26.711Z,25.77
2018-09-04T21:33:54.879Z,26.53
2018-09-04T21:36:23.062Z,26.20
2018-09-04T21:38:51.247Z,26.23
2018-09-04T21:41:19.427Z,26.83
2018-09-04T21:43:47.619Z,26.33
2018-09-04T21:46:15.823Z,26.03
2018-09-04T21:48:44.023Z,26.47
2018-09-04T21:51:12.243Z,25.60
2018-09-04T21:53:40.406Z,27.17
2018-09-04T21:56:08.575Z,27.03
2018-09-04T21:58:36.784Z,26.53
2018-09-04T22:01:05.004Z,26.70
2018-09-04T22:03:33.304Z,26.90
2018-09-04T22:06:01.467Z,27.70
2018-09-04T22:08:29.639Z,26.93
2018-09-04T22:10:57.848Z,27.93
2018-09-04T22:13:26.027Z,25.63
2018-09-04T22:15:54.199Z,23.93
2018-09-04T22:18:22.374Z,25.00
2018-09-04T22:20:50.597Z,26.90
2018-09-04T22:23:18.807Z,26.90
2018-09-04T22:25:47.008Z,27.10
2018-09-04T22:28:15.283Z,28.57
2018-09-04T22:30:43.473Z,28.93
2018-09-04T22:33:11.655Z,25.97
2018-09-04T22:35:39.831Z,26.93
2018-09-04T22:38:08.020Z,27.20
2018-09-04T22:40:36.212Z,26.47
2018-09-04T22:43:04.447Z,27.73
2018-09-04T22:45:32.654Z,27.77
2018-09-04T22:48:01.141Z,27.07
2018-09-04T22:50:34.896Z,26.70
2018-09-04T22:53:03.075Z,27.57
2018-09-04T22:55:31.254Z,26.10
2018-09-04T22:57:59.452Z,25.87
2018-09-04T23:00:27.615Z,26.40
2018-09-04T23:02:55.896Z,25.83
2018-09-04T23:05:24.078Z,24.40
2018-09-04T23:07:52.267Z,25.30
2018-09-04T23:10:20.438Z,25.70
2018-09-04T23:12:48.620Z,25.60
2018-09-04T23:15:16.835Z,25.30
2018-09-04T23:17:45.018Z,25.07
2018-09-04T23:20:13.218Z,23.97
2018-09-04T23:22:41.417Z,25.00
2018-09-04T23:25:09.585Z,23.47
2018-09-04T23:27:37.778Z,23.67
2018-09-04T23:30:06.016Z,24.07
2018-09-04T23:32:34.279Z,24.57
2018-09-04T23:35:02.479Z,26.57
2018-09-04T23:37:30.673Z,24.33
2018-09-04T23:39:58.899Z,25.23
2018-09-04T23:42:31.420Z,24.73
2018-09-04T23:45:00.023Z,24.03
2018-09-04T23:47:28.211Z,23.80
2018-09-04T23:49:56.452Z,25.80
2018-09-04T23:52:24.631Z,25.40
2018-09-04T23:54:52.808Z,24.20
2018-09-04T23:57:20.972Z,23.27
2018-09-04T23:59:49.147Z,23.27
